Chattanooga, TN (37424)

5:41 PM EDT on July 23, 2017 (GMT -0400)
Coolidge Park | | Change Station

Elev 673 ft 35.06 °N, 85.31 °W | Updated 12 seconds ago

Partly Cloudy
Partly Cloudy
84.7 °F
Feels Like 99 °F
N
0.0
Wind Variable Wind from SSW
Gusts 0.0 mph

Today
High -- | Low -- °F
--% Chance of Precip.
Yesterday
High -- | Low -- °F
Precip. -- in
Pressure 29.86 in
Visibility 10.0 miles
Clouds Few 3000 ft
Scattered Clouds 6000 ft
Scattered Clouds 15000 ft
Mostly Cloudy 25000 ft
Heat Index 99 °F
Dew Point 80 °F
Humidity 87%
Rainfall 0.00 in
Snow Depth Not available.
6:44 AM 8:50 PM
New Moon, 0% visible
METAR KCHA 232053Z VRB03KT 10SM FEW030 SCT060 SCT150 BKN250 32/23 A2988 RMK AO2 SLP109 60005 T03220228 58012
Pressure 29.86 in
Visibility 10.0 miles
Clouds Few 3000 ft
Scattered Clouds 6000 ft
Scattered Clouds 15000 ft
Mostly Cloudy 25000 ft
Heat Index 99 °F
Dew Point 80 °F
Humidity 87%
Rainfall 0.00 in
Snow Depth Not available.
6:44 AM 8:50 PM
New Moon, 0% visible
METAR KCHA 232053Z VRB03KT 10SM FEW030 SCT060 SCT150 BKN250 32/23 A2988 RMK AO2 SLP109 60005 T03220228 58012

Get Severe Weather Alerts

Thanks for signing up!

Be on the lookout for a verification email in your inbox.

You'll start receiving the daily forecast at 6 AM.

×

10-Day Weather Forecast

Almanac

Astronomy

Jul. 23, 2017 Rise Set
Actual Time
Civil Twilight
Nautical Twilight
Astronomical Twilight
Moon
Length of Visible Light
Length of Day
Tomorrow will be .
, % of the Moon is Illuminated

Today's Extremes

State Highs State Lows

Community

WunderPhotos

Category 6

Welcome to Category 6. This is the collective home for Weather Underground's featured writeups by Dr. Jeff Masters (right), Bob Henson (left), Chris Burt, and other regular contributors.

Nearby

Air Quality

  Air Quality AQ Index Pollutant
Not available.

Snow Depth

Station Depth Elevation

Earthquake Activity

City Distance Mag. Time & Date
Minimum magnitude displayed is 2.5.

Coastal Water Temperatures

Place Temperature

Stations

Nearby Weather Stations

Station Location Temp. Windchill Dew Point Humidity Wind Precip. Elev Updated Type
                   

Watches & Warnings

There are currently no watches in effect.